createdAt,value
2022-08-23T00:00:54.228Z,22.57
2022-08-23T00:01:52.568Z,22.56
2022-08-23T00:02:53.251Z,22.56
2022-08-23T00:03:52.564Z,22.55
2022-08-23T00:05:07.328Z,22.55
2022-08-23T00:05:53.527Z,22.53
2022-08-23T00:06:52.625Z,22.52
2022-08-23T00:07:52.484Z,22.51
2022-08-23T00:08:52.510Z,22.50
2022-08-23T00:09:52.511Z,22.49
2022-08-23T00:10:52.445Z,22.48
2022-08-23T00:11:52.489Z,22.46
2022-08-23T00:12:52.431Z,22.45
2022-08-23T00:13:53.093Z,22.42
2022-08-23T00:14:52.420Z,22.40
2022-08-23T00:15:53.060Z,22.39
2022-08-23T00:16:52.380Z,22.37
2022-08-23T00:17:53.342Z,22.35
2022-08-23T00:18:52.380Z,22.34
2022-08-23T00:19:52.349Z,22.33
2022-08-23T00:20:52.390Z,22.32
2022-08-23T00:21:52.366Z,22.31
2022-08-23T00:22:52.982Z,22.30
2022-08-23T00:23:52.973Z,22.28
2022-08-23T00:24:52.303Z,22.27
2022-08-23T00:25:52.299Z,22.25
2022-08-23T00:26:52.968Z,22.23
2022-08-23T00:27:52.282Z,22.21
2022-08-23T00:28:52.297Z,22.19
2022-08-23T00:29:52.297Z,22.18
2022-08-23T00:30:52.247Z,22.16
2022-08-23T00:31:52.890Z,22.14
2022-08-23T00:32:52.887Z,22.13
2022-08-23T00:33:55.663Z,22.12
2022-08-23T00:34:52.178Z,22.10
2022-08-23T00:35:52.835Z,22.09
2022-08-23T00:36:52.846Z,22.08
2022-08-23T00:38:32.262Z,22.06
2022-08-23T00:38:53.971Z,22.05
2022-08-23T00:39:52.165Z,22.03
2022-08-23T00:40:52.136Z,22.02
2022-08-23T00:41:52.177Z,21.99
2022-08-23T00:42:52.152Z,21.96
2022-08-23T00:43:52.090Z,21.93
2022-08-23T00:44:52.164Z,21.90
2022-08-23T00:45:52.080Z,21.87
2022-08-23T00:46:52.080Z,21.85
2022-08-23T00:47:52.175Z,21.82
2022-08-23T00:48:52.733Z,21.79
2022-08-23T00:49:52.701Z,21.76
2022-08-23T00:50:52.693Z,21.73
2022-08-23T00:51:53.240Z,21.70
2022-08-23T00:52:51.989Z,21.67
2022-08-23T00:53:52.657Z,21.65
2022-08-23T00:54:52.650Z,21.63
2022-08-23T00:55:52.634Z,21.60
2022-08-23T00:56:57.720Z,21.58
2022-08-23T00:57:52.627Z,21.55
2022-08-23T00:58:51.944Z,21.53
2022-08-23T00:59:51.934Z,21.50
2022-08-23T01:00:53.868Z,21.47
2022-08-23T01:01:52.675Z,21.46
2022-08-23T01:02:52.568Z,21.44
2022-08-23T01:04:03.978Z,21.42
2022-08-23T01:04:52.900Z,21.40
2022-08-23T01:05:51.906Z,21.39
2022-08-23T01:06:52.880Z,21.38
2022-08-23T01:07:51.867Z,21.36
2022-08-23T01:08:52.506Z,21.34
2022-08-23T01:09:51.901Z,21.33
2022-08-23T01:10:51.826Z,21.32
2022-08-23T01:11:52.467Z,21.31
2022-08-23T01:12:51.789Z,21.30
2022-08-23T01:13:52.444Z,21.28
2022-08-23T01:14:52.449Z,21.27
2022-08-23T01:15:51.789Z,21.26
2022-08-23T01:16:51.789Z,21.24
2022-08-23T01:17:52.399Z,21.23
2022-08-23T01:18:52.399Z,21.22
2022-08-23T01:19:52.396Z,21.20
2022-08-23T01:20:51.717Z,21.18
2022-08-23T01:21:52.360Z,21.17
2022-08-23T01:22:51.701Z,21.15
2022-08-23T01:23:51.732Z,21.14
2022-08-23T01:25:06.097Z,21.13
2022-08-23T01:25:53.563Z,21.12
2022-08-23T01:26:52.313Z,21.11
2022-08-23T01:27:52.299Z,21.10
2022-08-23T01:28:52.306Z,21.10
2022-08-23T01:29:52.274Z,21.10
2022-08-23T01:30:52.267Z,21.08
2022-08-23T01:31:51.584Z,21.07
2022-08-23T01:32:51.618Z,21.06
2022-08-23T01:33:52.351Z,21.04
2022-08-23T01:34:52.218Z,21.04
2022-08-23T01:35:52.224Z,21.01
2022-08-23T01:36:51.544Z,21.00
2022-08-23T01:37:51.500Z,20.99
2022-08-23T01:38:51.516Z,20.97
2022-08-23T01:39:51.533Z,20.96
2022-08-23T01:40:52.147Z,20.94
2022-08-23T01:41:51.494Z,20.92
2022-08-23T01:42:51.456Z,20.91
2022-08-23T01:43:51.459Z,20.89
2022-08-23T01:44:51.501Z,20.88
2022-08-23T01:45:51.447Z,20.86
2022-08-23T01:46:53.082Z,20.87
2022-08-23T01:47:53.838Z,20.86
2022-08-23T01:48:51.402Z,20.83
2022-08-23T01:49:51.382Z,20.81
2022-08-23T01:50:52.051Z,20.79
2022-08-23T01:51:51.412Z,20.78
2022-08-23T01:52:51.520Z,20.77
2022-08-23T01:53:53.321Z,20.75
2022-08-23T01:54:51.356Z,20.73
2022-08-23T01:55:51.341Z,20.72
2022-08-23T01:56:51.401Z,20.71
2022-08-23T01:57:51.323Z,20.70
2022-08-23T01:58:51.402Z,20.69
2022-08-23T01:59:51.263Z,20.67
2022-08-23T02:00:51.263Z,20.66
2022-08-23T02:01:51.364Z,20.65
2022-08-23T02:02:51.924Z,20.64
2022-08-23T02:03:58.897Z,20.62
2022-08-23T02:04:52.644Z,20.60
2022-08-23T02:06:51.208Z,20.57
2022-08-23T02:07:52.658Z,20.55
2022-08-23T02:08:52.179Z,20.54
2022-08-23T02:09:51.844Z,20.53
2022-08-23T02:10:51.816Z,20.50
2022-08-23T02:11:51.816Z,20.49
2022-08-23T02:12:51.138Z,20.47
2022-08-23T02:13:51.140Z,20.45
2022-08-23T02:14:53.546Z,20.43
2022-08-23T02:15:51.401Z,20.41
2022-08-23T02:16:59.984Z,20.39
2022-08-23T02:17:52.068Z,20.38
2022-08-23T02:18:51.098Z,20.36
2022-08-23T02:19:51.738Z,20.34
2022-08-23T02:20:51.720Z,20.32
2022-08-23T02:21:51.711Z,20.30
2022-08-23T02:22:51.650Z,20.29
2022-08-23T02:23:53.472Z,20.27
2022-08-23T02:24:51.684Z,20.26
2022-08-23T02:25:51.671Z,20.24
2022-08-23T02:26:56.830Z,20.23
2022-08-23T02:27:52.273Z,20.22
2022-08-23T02:28:50.973Z,20.21
2022-08-23T02:29:52.762Z,20.19
2022-08-23T02:30:50.940Z,20.18
2022-08-23T02:31:51.646Z,20.16
2022-08-23T02:32:51.604Z,20.15
2022-08-23T02:33:50.942Z,20.15
2022-08-23T02:35:05.399Z,20.14
2022-08-23T02:35:51.885Z,20.13
2022-08-23T02:36:51.549Z,20.14
2022-08-23T02:37:51.541Z,20.14
2022-08-23T02:38:50.836Z,20.12
2022-08-23T02:39:50.954Z,20.12
2022-08-23T02:40:52.926Z,20.11
2022-08-23T02:41:52.497Z,20.11
2022-08-23T02:42:51.499Z,20.10
2022-08-23T02:43:53.259Z,20.10
2022-08-23T02:44:51.466Z,20.09
2022-08-23T02:45:51.481Z,20.08
2022-08-23T02:46:51.440Z,20.07
2022-08-23T02:47:50.747Z,20.06
2022-08-23T02:48:51.418Z,20.06
2022-08-23T02:49:51.408Z,20.05
2022-08-23T02:50:51.405Z,20.04
2022-08-23T02:51:51.583Z,20.03
2022-08-23T02:52:50.700Z,20.03
2022-08-23T02:53:51.360Z,20.01
2022-08-23T02:54:51.372Z,20.00
2022-08-23T02:55:51.350Z,19.98
2022-08-23T02:56:51.339Z,19.97
2022-08-23T02:57:51.325Z,19.96
2022-08-23T02:58:54.055Z,19.95
2022-08-23T02:59:51.332Z,19.93
2022-08-23T03:00:50.606Z,19.92
2022-08-23T03:01:50.602Z,19.90
2022-08-23T03:02:52.041Z,19.89
2022-08-23T03:03:51.263Z,19.87
2022-08-23T03:04:51.253Z,19.86
2022-08-23T03:05:50.552Z,19.85
2022-08-23T03:06:51.222Z,19.84
2022-08-23T03:07:51.214Z,19.82
2022-08-23T03:08:50.523Z,19.81
2022-08-23T03:09:51.274Z,19.80
2022-08-23T03:10:52.328Z,19.79
2022-08-23T03:11:51.174Z,19.78
2022-08-23T03:12:51.215Z,19.77
2022-08-23T03:13:54.087Z,19.76
2022-08-23T03:14:50.484Z,19.76
2022-08-23T03:15:50.496Z,19.75
2022-08-23T03:16:50.456Z,19.75
2022-08-23T03:17:50.420Z,19.75
2022-08-23T03:18:50.448Z,19.72
2022-08-23T03:19:51.085Z,19.71
2022-08-23T03:20:50.398Z,19.70
2022-08-23T03:21:50.438Z,19.69
2022-08-23T03:22:54.552Z,19.68
2022-08-23T03:23:51.039Z,19.67
2022-08-23T03:24:51.029Z,19.64
2022-08-23T03:25:50.329Z,19.63
2022-08-23T03:26:51.008Z,19.62
2022-08-23T03:27:51.079Z,19.60
2022-08-23T03:28:50.990Z,19.59
2022-08-23T03:29:51.712Z,19.57
2022-08-23T03:30:50.960Z,19.55
2022-08-23T03:31:50.274Z,19.54
2022-08-23T03:32:50.289Z,19.52
2022-08-23T03:33:50.961Z,19.50
2022-08-23T03:34:50.310Z,19.48
2022-08-23T03:35:50.912Z,19.45
2022-08-23T03:36:50.900Z,19.43
2022-08-23T03:37:55.045Z,19.41
2022-08-23T03:38:50.899Z,19.38
2022-08-23T03:39:50.252Z,19.37
2022-08-23T03:40:50.166Z,19.35
2022-08-23T03:41:50.843Z,19.33
2022-08-23T03:42:50.156Z,19.31
2022-08-23T03:43:50.820Z,19.30
2022-08-23T03:44:51.063Z,19.28
2022-08-23T03:45:52.606Z,19.27
2022-08-23T03:46:50.786Z,19.25
2022-08-23T03:47:50.087Z,19.23
2022-08-23T03:48:50.098Z,19.21
2022-08-23T03:49:50.766Z,19.20
2022-08-23T03:50:50.745Z,19.18
2022-08-23T03:51:50.727Z,19.17
2022-08-23T03:52:50.037Z,19.15
2022-08-23T03:53:50.717Z,19.14
2022-08-23T03:54:50.048Z,19.12
2022-08-23T03:55:50.704Z,19.10
2022-08-23T03:56:50.679Z,19.08
2022-08-23T03:57:50.667Z,19.06
2022-08-23T03:58:52.639Z,19.05
2022-08-23T03:59:53.249Z,19.04
2022-08-23T04:00:56.582Z,19.02
2022-08-23T04:01:50.682Z,19.00
2022-08-23T04:02:49.941Z,18.98
2022-08-23T04:03:50.820Z,18.97
2022-08-23T04:04:53.890Z,18.95
2022-08-23T04:05:51.752Z,18.92
2022-08-23T04:06:50.051Z,18.91
2022-08-23T04:07:51.164Z,18.89
2022-08-23T04:08:50.551Z,18.88
2022-08-23T04:09:54.861Z,18.86
2022-08-23T04:10:49.845Z,18.85
2022-08-23T04:11:50.155Z,18.83
2022-08-23T04:12:49.859Z,18.82
2022-08-23T04:13:50.757Z,18.80
2022-08-23T04:14:49.813Z,18.79
2022-08-23T04:15:49.867Z,18.78
2022-08-23T04:16:50.464Z,18.78
2022-08-23T04:17:49.848Z,18.78
2022-08-23T04:18:49.797Z,18.77
2022-08-23T04:19:50.456Z,18.77
2022-08-23T04:20:49.761Z,18.76
2022-08-23T04:21:49.815Z,18.75
2022-08-23T04:22:50.406Z,18.75
2022-08-23T04:23:50.394Z,18.74
2022-08-23T04:24:49.739Z,18.74
2022-08-23T04:25:49.707Z,18.73
2022-08-23T04:26:50.357Z,18.74
2022-08-23T04:27:49.758Z,18.74
2022-08-23T04:28:50.533Z,18.74
2022-08-23T04:29:50.318Z,18.75
2022-08-23T04:30:49.679Z,18.76
2022-08-23T04:31:50.308Z,18.76
2022-08-23T04:32:49.635Z,18.78
2022-08-23T04:33:50.916Z,18.78
2022-08-23T04:34:51.342Z,18.79
2022-08-23T04:35:49.594Z,18.80
2022-08-23T04:36:51.853Z,18.82
2022-08-23T04:37:51.230Z,18.84
2022-08-23T04:38:50.228Z,18.86
2022-08-23T04:39:51.872Z,18.87
2022-08-23T04:40:50.211Z,18.89
2022-08-23T04:41:50.219Z,18.91
2022-08-23T04:42:50.190Z,18.92
2022-08-23T04:43:50.174Z,18.95
2022-08-23T04:44:50.162Z,18.97
2022-08-23T04:45:50.153Z,18.99
2022-08-23T04:46:49.464Z,19.00
2022-08-23T04:47:50.146Z,19.02
2022-08-23T04:48:50.124Z,19.04
2022-08-23T04:49:50.373Z,19.06
2022-08-23T04:50:49.417Z,19.09
2022-08-23T04:51:53.429Z,19.11
2022-08-23T04:52:49.437Z,19.14
2022-08-23T04:53:50.067Z,19.17
2022-08-23T04:54:50.059Z,19.19
2022-08-23T04:55:50.046Z,19.23
2022-08-23T04:56:51.873Z,19.24
2022-08-23T04:57:50.021Z,19.27
2022-08-23T04:58:50.032Z,19.29
2022-08-23T04:59:49.358Z,19.33
2022-08-23T05:00:51.511Z,19.36
2022-08-23T05:01:49.353Z,19.39
2022-08-23T05:02:49.299Z,19.43
2022-08-23T05:03:49.321Z,19.46
2022-08-23T05:04:49.318Z,19.49
2022-08-23T05:05:49.298Z,19.52
2022-08-23T05:06:49.939Z,19.55
2022-08-23T05:07:51.679Z,19.59
2022-08-23T05:08:49.226Z,19.63
2022-08-23T05:09:49.259Z,19.67
2022-08-23T05:10:49.890Z,19.70
2022-08-23T05:11:49.880Z,19.75
2022-08-23T05:12:49.878Z,19.78
2022-08-23T05:13:49.223Z,19.81
2022-08-23T05:14:51.106Z,19.86
2022-08-23T05:15:49.217Z,19.89
2022-08-23T05:16:49.132Z,19.93
2022-08-23T05:17:49.812Z,19.98
2022-08-23T05:18:49.804Z,20.02
2022-08-23T05:19:49.793Z,20.07
2022-08-23T05:20:49.787Z,20.11
2022-08-23T05:21:49.126Z,20.15
2022-08-23T05:22:49.066Z,20.20
2022-08-23T05:23:51.067Z,20.25
2022-08-23T05:24:52.025Z,20.32
2022-08-23T05:25:51.604Z,20.37
2022-08-23T05:26:49.037Z,20.43
2022-08-23T05:27:49.095Z,20.50
2022-08-23T05:28:49.712Z,20.56
2022-08-23T05:29:49.006Z,20.63
2022-08-23T05:30:56.367Z,20.69
2022-08-23T05:31:50.896Z,20.77
2022-08-23T05:32:49.661Z,20.83
2022-08-23T05:33:48.988Z,20.90
2022-08-23T05:34:49.640Z,20.99
2022-08-23T05:35:48.947Z,21.07
2022-08-23T05:36:56.033Z,21.16
2022-08-23T05:37:49.916Z,21.26
2022-08-23T05:38:48.909Z,21.37
2022-08-23T05:39:48.929Z,21.50
2022-08-23T05:40:49.560Z,21.64
2022-08-23T05:41:49.901Z,21.79
2022-08-23T05:42:49.553Z,22.02
2022-08-23T05:43:49.535Z,22.41
2022-08-23T05:44:49.533Z,22.90
2022-08-23T05:45:48.890Z,23.48
2022-08-23T05:46:49.502Z,24.08
2022-08-23T05:47:49.828Z,24.64
2022-08-23T05:48:48.801Z,25.14
2022-08-23T05:49:48.793Z,25.63
2022-08-23T05:50:49.462Z,26.08
2022-08-23T05:51:51.714Z,26.47
2022-08-23T05:52:51.188Z,26.85
2022-08-23T05:53:50.692Z,27.22
2022-08-23T05:54:48.724Z,27.58
2022-08-23T05:55:49.402Z,27.91
2022-08-23T05:56:49.392Z,28.23
2022-08-23T05:57:50.674Z,28.53
2022-08-23T05:58:48.693Z,28.80
2022-08-23T05:59:49.366Z,29.07
2022-08-23T06:00:48.703Z,29.33
2022-08-23T06:01:50.243Z,29.59
2022-08-23T06:02:49.330Z,29.83
2022-08-23T06:03:49.327Z,30.07
2022-08-23T06:04:48.702Z,30.31
2022-08-23T06:05:48.627Z,30.56
2022-08-23T06:06:48.654Z,30.78
2022-08-23T06:07:49.389Z,31.00
2022-08-23T06:08:49.269Z,31.23
2022-08-23T06:09:48.611Z,31.45
2022-08-23T06:10:48.568Z,31.62
2022-08-23T06:11:48.567Z,31.81
2022-08-23T06:12:48.560Z,32.00
2022-08-23T06:13:49.236Z,32.23
2022-08-23T06:14:49.204Z,32.45
2022-08-23T06:15:49.529Z,32.61
2022-08-23T06:16:52.523Z,32.75
2022-08-23T06:17:48.470Z,32.90
2022-08-23T06:18:49.176Z,33.08
2022-08-23T06:19:49.151Z,33.23
2022-08-23T06:20:49.220Z,33.40
2022-08-23T06:21:49.162Z,33.56
2022-08-23T06:22:50.875Z,33.72
2022-08-23T06:23:49.105Z,33.85
2022-08-23T06:24:48.447Z,34.00
2022-08-23T06:25:49.082Z,34.16
2022-08-23T06:26:49.076Z,34.37
2022-08-23T06:27:49.069Z,34.53
2022-08-23T06:28:50.939Z,34.70
2022-08-23T06:29:49.036Z,34.84
2022-08-23T06:30:48.428Z,35.00
2022-08-23T06:31:48.376Z,35.16
2022-08-23T06:32:48.373Z,35.28
2022-08-23T06:33:48.501Z,35.38
2022-08-23T06:34:48.303Z,35.46
2022-08-23T06:35:48.314Z,35.55
2022-08-23T06:36:48.978Z,35.69
2022-08-23T06:37:48.972Z,35.84
2022-08-23T06:38:48.955Z,35.98
2022-08-23T06:39:48.946Z,36.14
2022-08-23T06:40:48.937Z,36.31
2022-08-23T06:41:48.240Z,36.43
2022-08-23T06:42:48.902Z,36.37
2022-08-23T06:43:48.925Z,36.32
2022-08-23T06:44:48.221Z,36.46
2022-08-23T06:45:58.288Z,36.01
2022-08-23T06:46:49.249Z,35.66
2022-08-23T06:47:48.174Z,35.27
2022-08-23T06:48:48.853Z,35.38
2022-08-23T06:49:55.403Z,35.69
2022-08-23T06:50:50.625Z,35.98
2022-08-23T06:51:48.814Z,36.24
2022-08-23T06:52:48.804Z,36.50
2022-08-23T06:53:48.105Z,36.76
2022-08-23T06:54:48.793Z,36.95
2022-08-23T06:55:48.776Z,37.13
2022-08-23T06:56:50.078Z,37.22
2022-08-23T06:57:48.762Z,37.44
2022-08-23T06:58:48.058Z,37.65
2022-08-23T06:59:48.065Z,37.85
2022-08-23T07:00:48.068Z,38.09
2022-08-23T07:01:48.783Z,38.35
2022-08-23T07:02:50.146Z,38.59
2022-08-23T07:03:48.688Z,38.83
2022-08-23T07:04:48.689Z,39.04
2022-08-23T07:05:48.032Z,39.20
2022-08-23T07:06:47.969Z,39.32
2022-08-23T07:07:47.967Z,39.46
2022-08-23T07:08:50.418Z,39.59
2022-08-23T07:09:47.941Z,39.69
2022-08-23T07:10:47.966Z,39.79
2022-08-23T07:11:47.961Z,39.90
2022-08-23T07:12:48.593Z,39.99
2022-08-23T07:13:47.916Z,40.11
2022-08-23T07:14:48.566Z,40.25
2022-08-23T07:15:50.163Z,40.41
2022-08-23T07:16:47.864Z,40.58
2022-08-23T07:17:48.540Z,40.73
2022-08-23T07:18:48.526Z,40.89
2022-08-23T07:19:47.835Z,41.01
2022-08-23T07:20:48.507Z,41.07
2022-08-23T07:21:49.757Z,41.23
2022-08-23T07:22:48.577Z,41.41
2022-08-23T07:23:48.477Z,41.54
2022-08-23T07:24:48.466Z,41.65
2022-08-23T07:25:48.458Z,41.77
2022-08-23T07:26:48.438Z,41.91
2022-08-23T07:27:47.768Z,42.03
2022-08-23T07:28:47.776Z,42.13
2022-08-23T07:29:47.760Z,42.23
2022-08-23T07:30:48.410Z,42.34
2022-08-23T07:31:47.813Z,42.48
2022-08-23T07:32:48.391Z,42.62
2022-08-23T07:33:47.702Z,42.77
2022-08-23T07:34:48.515Z,42.86
2022-08-23T07:35:48.354Z,42.94
2022-08-23T07:36:47.669Z,42.97
2022-08-23T07:37:48.334Z,43.01
2022-08-23T07:38:47.741Z,43.04
2022-08-23T07:39:48.368Z,43.10
2022-08-23T07:40:47.623Z,43.21
2022-08-23T07:41:50.540Z,43.29
2022-08-23T07:42:48.283Z,43.40
2022-08-23T07:43:48.319Z,43.54
2022-08-23T07:44:47.615Z,43.74
2022-08-23T07:45:48.260Z,43.91
2022-08-23T07:46:47.612Z,44.04
2022-08-23T07:47:50.475Z,44.21
2022-08-23T07:48:55.207Z,44.37
2022-08-23T07:49:48.569Z,44.49
2022-08-23T07:50:54.761Z,44.62
2022-08-23T07:51:48.510Z,44.77
2022-08-23T07:52:48.179Z,44.93
2022-08-23T07:53:47.505Z,45.06
2022-08-23T07:54:49.411Z,45.15
2022-08-23T07:55:47.511Z,45.24
2022-08-23T07:56:48.150Z,45.33
2022-08-23T07:57:48.130Z,45.38
2022-08-23T07:58:48.156Z,45.38
2022-08-23T07:59:47.450Z,45.38
2022-08-23T08:00:47.418Z,45.42
2022-08-23T08:01:47.496Z,45.50
2022-08-23T08:02:47.462Z,45.58
2022-08-23T08:03:47.395Z,45.62
2022-08-23T08:04:48.062Z,45.49
2022-08-23T08:05:48.055Z,45.48
2022-08-23T08:06:52.731Z,45.52
2022-08-23T08:07:49.884Z,45.55
2022-08-23T08:08:48.255Z,45.64
2022-08-23T08:09:48.008Z,45.74
2022-08-23T08:10:47.360Z,45.89
2022-08-23T08:11:47.345Z,46.01
2022-08-23T08:12:47.318Z,46.11
2022-08-23T08:13:47.425Z,46.18
2022-08-23T08:14:48.346Z,46.21
2022-08-23T08:15:48.029Z,46.19
2022-08-23T08:16:47.959Z,46.30
2022-08-23T08:17:47.288Z,46.49
2022-08-23T08:18:47.919Z,46.69
2022-08-23T08:19:47.304Z,46.83
2022-08-23T08:20:47.519Z,46.89
2022-08-23T08:21:47.200Z,46.92
2022-08-23T08:22:49.190Z,47.01
2022-08-23T08:23:47.867Z,47.14
2022-08-23T08:24:47.870Z,47.24
2022-08-23T08:25:47.824Z,47.27
2022-08-23T08:26:48.125Z,47.31
2022-08-23T08:27:47.165Z,47.38
2022-08-23T08:28:47.133Z,47.43
2022-08-23T08:29:47.125Z,47.45
2022-08-23T08:30:47.122Z,47.43
2022-08-23T08:31:49.515Z,47.42
2022-08-23T08:32:48.084Z,47.37
2022-08-23T08:33:47.763Z,47.27
2022-08-23T08:34:47.753Z,47.14
2022-08-23T08:35:47.745Z,47.01
2022-08-23T08:36:48.743Z,46.91
2022-08-23T08:37:47.065Z,46.79
2022-08-23T08:38:47.939Z,46.68
2022-08-23T08:39:47.058Z,46.57
2022-08-23T08:40:47.020Z,46.40
2022-08-23T08:41:47.679Z,46.23
2022-08-23T08:42:47.032Z,46.06
2022-08-23T08:43:47.669Z,45.89
2022-08-23T08:44:47.651Z,45.68
2022-08-23T08:45:47.600Z,45.53
2022-08-23T08:46:48.031Z,45.36
2022-08-23T08:47:46.955Z,45.19
2022-08-23T08:48:47.595Z,45.02
2022-08-23T08:49:46.911Z,44.88
2022-08-23T08:50:47.608Z,44.75
2022-08-23T08:51:47.572Z,44.62
2022-08-23T08:52:47.564Z,44.49
2022-08-23T08:53:47.566Z,44.35
2022-08-23T08:54:48.331Z,44.28
2022-08-23T08:55:47.552Z,44.29
2022-08-23T08:56:46.855Z,44.34
2022-08-23T08:57:47.518Z,44.40
2022-08-23T08:58:47.777Z,44.47
2022-08-23T08:59:46.816Z,44.54
2022-08-23T09:00:47.485Z,44.63
2022-08-23T09:01:48.664Z,44.71
2022-08-23T09:02:47.524Z,44.77
2022-08-23T09:03:47.455Z,44.79
2022-08-23T09:04:46.798Z,44.76
2022-08-23T09:05:47.440Z,44.66
2022-08-23T09:06:47.407Z,44.48
2022-08-23T09:07:47.430Z,44.29
2022-08-23T09:08:47.443Z,44.06
2022-08-23T09:09:47.402Z,43.86
2022-08-23T09:10:47.390Z,43.69
2022-08-23T09:11:47.394Z,43.53
2022-08-23T09:12:47.361Z,43.43
2022-08-23T09:13:46.734Z,43.40
2022-08-23T09:14:46.694Z,43.38
2022-08-23T09:15:46.696Z,43.37
2022-08-23T09:16:47.354Z,43.35
2022-08-23T09:17:47.333Z,43.23
2022-08-23T09:18:47.304Z,43.04
2022-08-23T09:19:47.310Z,42.79
2022-08-23T09:20:46.616Z,42.60
2022-08-23T09:21:46.620Z,42.53
2022-08-23T09:22:47.266Z,42.44
2022-08-23T09:23:47.264Z,42.35
2022-08-23T09:24:47.250Z,42.26
2022-08-23T09:25:47.248Z,42.22
2022-08-23T09:26:46.559Z,42.17
2022-08-23T09:27:47.218Z,42.15
2022-08-23T09:28:47.951Z,42.15
2022-08-23T09:29:46.531Z,42.18
2022-08-23T09:30:46.555Z,42.19
2022-08-23T09:31:46.592Z,42.19
2022-08-23T09:32:46.536Z,42.15
2022-08-23T09:33:47.151Z,42.04
2022-08-23T09:34:46.461Z,41.82
2022-08-23T09:35:47.134Z,41.63
2022-08-23T09:36:46.531Z,41.53
2022-08-23T09:37:47.112Z,41.41
2022-08-23T09:38:46.431Z,41.28
2022-08-23T09:39:47.133Z,41.19
2022-08-23T09:40:47.110Z,41.16
2022-08-23T09:41:47.355Z,41.22
2022-08-23T09:42:47.067Z,41.27
2022-08-23T09:43:46.394Z,41.31
2022-08-23T09:44:46.372Z,41.31
2022-08-23T09:45:46.375Z,41.36
2022-08-23T09:46:47.039Z,41.42
2022-08-23T09:47:47.017Z,41.56
2022-08-23T09:48:46.406Z,41.66
2022-08-23T09:49:46.333Z,41.72
2022-08-23T09:50:46.307Z,41.78
2022-08-23T09:51:46.981Z,41.83
2022-08-23T09:52:46.959Z,41.83
2022-08-23T09:53:46.963Z,41.83
2022-08-23T09:54:47.672Z,41.88
2022-08-23T09:55:46.931Z,41.94
2022-08-23T09:56:46.230Z,42.03
2022-08-23T09:57:46.264Z,42.14
2022-08-23T09:58:46.919Z,42.23
2022-08-23T09:59:46.902Z,42.31
2022-08-23T10:00:46.873Z,42.35
2022-08-23T10:01:46.894Z,42.39
2022-08-23T10:02:46.863Z,42.37
2022-08-23T10:03:46.226Z,42.35
2022-08-23T10:04:46.922Z,42.37
2022-08-23T10:05:46.834Z,42.38
2022-08-23T10:06:46.243Z,42.40
2022-08-23T10:07:46.825Z,42.38
2022-08-23T10:08:46.172Z,42.28
2022-08-23T10:09:46.807Z,42.24
2022-08-23T10:10:46.115Z,42.18
2022-08-23T10:11:46.773Z,42.19
2022-08-23T10:12:46.870Z,42.21
2022-08-23T10:13:46.074Z,42.21
2022-08-23T10:14:46.065Z,42.28
2022-08-23T10:15:46.113Z,42.34
2022-08-23T10:16:46.044Z,42.48
2022-08-23T10:17:46.718Z,42.71
2022-08-23T10:18:48.402Z,42.84
2022-08-23T10:19:47.881Z,42.84
2022-08-23T10:20:46.689Z,42.92
2022-08-23T10:21:46.680Z,43.15
2022-08-23T10:22:46.672Z,43.51
2022-08-23T10:23:46.653Z,43.82
2022-08-23T10:24:46.651Z,44.15
2022-08-23T10:25:45.958Z,44.42
2022-08-23T10:26:45.955Z,44.53
2022-08-23T10:27:45.934Z,44.71
2022-08-23T10:28:46.615Z,44.83
2022-08-23T10:29:45.953Z,44.89
2022-08-23T10:30:46.624Z,44.96
2022-08-23T10:31:46.581Z,45.16
2022-08-23T10:32:45.886Z,45.26
2022-08-23T10:33:46.558Z,45.32
2022-08-23T10:34:50.438Z,45.35
2022-08-23T10:35:45.927Z,45.43
2022-08-23T10:36:45.928Z,45.33
2022-08-23T10:37:48.740Z,45.06
2022-08-23T10:38:45.818Z,44.78
2022-08-23T10:39:48.312Z,44.11
2022-08-23T10:40:46.490Z,43.60
2022-08-23T10:41:45.798Z,43.11
2022-08-23T10:42:46.767Z,42.33
2022-08-23T10:43:46.468Z,41.36
2022-08-23T10:44:45.788Z,40.48
2022-08-23T10:45:45.755Z,39.62
2022-08-23T10:46:45.773Z,38.83
2022-08-23T10:47:45.748Z,38.18
2022-08-23T10:48:45.771Z,37.70
2022-08-23T10:49:45.769Z,37.31
2022-08-23T10:50:45.702Z,36.95
2022-08-23T10:51:47.371Z,36.69
2022-08-23T10:52:45.683Z,36.47
2022-08-23T10:53:46.356Z,36.30
2022-08-23T10:54:45.709Z,36.15
2022-08-23T10:55:45.654Z,36.02
2022-08-23T10:56:51.214Z,35.91
2022-08-23T10:57:48.069Z,35.80
2022-08-23T10:58:47.553Z,35.71
2022-08-23T10:59:48.431Z,35.63
2022-08-23T11:00:45.637Z,35.57
2022-08-23T11:01:45.687Z,35.48
2022-08-23T11:02:46.283Z,35.42
2022-08-23T11:03:46.248Z,35.31
2022-08-23T11:04:46.240Z,35.19
2022-08-23T11:05:46.229Z,35.08
2022-08-23T11:06:45.576Z,34.99
2022-08-23T11:07:45.547Z,34.90
2022-08-23T11:08:47.973Z,34.86
2022-08-23T11:09:45.509Z,34.82
2022-08-23T11:10:56.134Z,34.78
2022-08-23T11:11:49.349Z,34.71
2022-08-23T11:12:45.498Z,34.65
2022-08-23T11:13:45.463Z,34.56
2022-08-23T11:14:46.143Z,34.46
2022-08-23T11:15:47.436Z,34.36
2022-08-23T11:16:46.104Z,34.26
2022-08-23T11:17:45.474Z,34.15
2022-08-23T11:18:46.099Z,34.03
2022-08-23T11:19:45.405Z,33.94
2022-08-23T11:20:45.404Z,33.84
2022-08-23T11:21:46.066Z,33.77
2022-08-23T11:22:45.394Z,33.73
2022-08-23T11:23:45.437Z,33.68
2022-08-23T11:24:45.346Z,33.63
2022-08-23T11:25:45.360Z,33.59
2022-08-23T11:26:45.348Z,33.56
2022-08-23T11:27:45.317Z,33.54
2022-08-23T11:28:45.988Z,33.52
2022-08-23T11:29:45.987Z,33.49
2022-08-23T11:30:45.345Z,33.45
2022-08-23T11:31:45.958Z,33.42
2022-08-23T11:32:45.289Z,33.37
2022-08-23T11:33:45.264Z,33.33
2022-08-23T11:34:45.929Z,33.28
2022-08-23T11:35:45.320Z,33.22
2022-08-23T11:36:45.214Z,33.19
2022-08-23T11:37:45.285Z,33.17
2022-08-23T11:38:45.204Z,33.14
2022-08-23T11:39:45.915Z,33.14
2022-08-23T11:40:45.192Z,33.13
2022-08-23T11:41:45.870Z,33.05
2022-08-23T11:42:45.152Z,33.03
2022-08-23T11:43:45.161Z,33.02
2022-08-23T11:44:45.823Z,33.01
2022-08-23T11:45:45.137Z,33.03
2022-08-23T11:46:45.801Z,33.06
2022-08-23T11:47:45.815Z,33.08
2022-08-23T11:48:45.096Z,33.09
2022-08-23T11:49:45.110Z,33.12
2022-08-23T11:50:45.081Z,33.14
2022-08-23T11:51:45.754Z,33.16
2022-08-23T11:52:45.045Z,33.18
2022-08-23T11:53:45.736Z,33.22
2022-08-23T11:54:45.036Z,33.26
2022-08-23T11:55:45.029Z,33.28
2022-08-23T11:56:46.426Z,33.32
2022-08-23T11:57:45.020Z,33.35
2022-08-23T11:58:44.989Z,33.37
2022-08-23T11:59:45.032Z,33.37
2022-08-23T12:00:44.980Z,33.37
2022-08-23T12:01:45.657Z,33.37
2022-08-23T12:02:45.064Z,33.38
2022-08-23T12:03:46.084Z,33.39
2022-08-23T12:04:45.623Z,33.40
2022-08-23T12:05:45.612Z,33.42
2022-08-23T12:06:51.133Z,33.43
2022-08-23T12:07:45.901Z,33.46
2022-08-23T12:08:44.893Z,33.48
2022-08-23T12:09:45.566Z,33.46
2022-08-23T12:10:45.553Z,33.46
2022-08-23T12:11:44.924Z,33.49
2022-08-23T12:12:47.454Z,33.51
2022-08-23T12:13:45.540Z,33.53
2022-08-23T12:14:44.835Z,33.55
2022-08-23T12:15:46.303Z,33.58
2022-08-23T12:16:50.036Z,33.59
2022-08-23T12:17:45.576Z,33.63
2022-08-23T12:18:47.839Z,33.67
2022-08-23T12:19:45.457Z,33.72
2022-08-23T12:20:48.627Z,33.76
2022-08-23T12:21:45.448Z,33.81
2022-08-23T12:22:44.761Z,33.88
2022-08-23T12:23:47.932Z,33.95
2022-08-23T12:24:44.720Z,34.02
2022-08-23T12:25:45.668Z,34.08
2022-08-23T12:26:44.720Z,34.14
2022-08-23T12:27:44.732Z,34.18
2022-08-23T12:28:45.374Z,34.17
2022-08-23T12:29:44.712Z,34.18
2022-08-23T12:30:44.866Z,34.17
2022-08-23T12:31:45.405Z,34.17
2022-08-23T12:32:45.582Z,34.18
2022-08-23T12:33:45.864Z,34.19
2022-08-23T12:34:47.236Z,34.20
2022-08-23T12:35:47.183Z,34.23
2022-08-23T12:36:45.603Z,34.24
2022-08-23T12:37:47.036Z,34.28
2022-08-23T12:38:47.019Z,34.34
2022-08-23T12:39:47.074Z,34.38
2022-08-23T12:40:45.527Z,34.40
2022-08-23T12:41:45.239Z,34.44
2022-08-23T12:42:45.238Z,34.51
2022-08-23T12:43:44.568Z,34.56
2022-08-23T12:44:44.632Z,34.57
2022-08-23T12:45:44.562Z,34.59
2022-08-23T12:46:46.011Z,34.61
2022-08-23T12:47:44.548Z,34.65
2022-08-23T12:48:44.521Z,34.68
2022-08-23T12:49:45.151Z,34.70
2022-08-23T12:50:45.148Z,34.68
2022-08-23T12:51:45.133Z,34.65
2022-08-23T12:52:44.432Z,34.58
2022-08-23T12:53:45.730Z,34.52